createdAt,value
2022-08-22T00:05:32.424Z,999.53
2022-08-22T00:15:43.637Z,999.50
2022-08-22T00:25:50.488Z,999.46
2022-08-22T00:35:56.631Z,999.57
2022-08-22T00:46:02.479Z,999.51
2022-08-22T00:56:10.388Z,999.50
2022-08-22T01:06:16.304Z,999.53
2022-08-22T01:16:24.772Z,999.51
2022-08-22T01:26:31.930Z,999.55
2022-08-22T01:36:38.830Z,999.58
2022-08-22T01:46:45.863Z,999.55
2022-08-22T01:56:53.019Z,999.53
2022-08-22T02:07:00.343Z,999.57
2022-08-22T02:17:08.171Z,999.61
2022-08-22T02:27:13.875Z,999.63
2022-08-22T02:37:19.951Z,999.65
2022-08-22T02:47:26.023Z,999.61
2022-08-22T02:57:34.544Z,999.57
2022-08-22T03:07:44.098Z,999.60
2022-08-22T03:17:50.418Z,999.57
2022-08-22T03:27:56.184Z,999.61
2022-08-22T03:38:03.700Z,999.51
2022-08-22T03:48:09.778Z,999.61
2022-08-22T03:58:27.709Z,999.67
2022-08-22T04:08:27.528Z,999.70
2022-08-22T04:18:34.312Z,999.75
2022-08-22T04:28:40.574Z,999.87
2022-08-22T04:38:47.068Z,999.80
2022-08-22T04:48:53.220Z,999.88
2022-08-22T04:59:00.133Z,999.93
2022-08-22T05:09:11.778Z,1000.03
2022-08-22T05:19:29.628Z,999.99
2022-08-22T05:29:33.342Z,1000.13
2022-08-22T05:39:39.635Z,1000.31
2022-08-22T05:49:45.918Z,1000.25
2022-08-22T05:59:53.005Z,1000.25
2022-08-22T06:09:58.703Z,1000.32
2022-08-22T06:20:05.212Z,1000.32
2022-08-22T06:30:10.940Z,1000.37
2022-08-22T06:40:19.101Z,1000.45
2022-08-22T06:50:25.053Z,1000.41
2022-08-22T07:00:32.673Z,1000.39
2022-08-22T07:10:38.700Z,1000.29
2022-08-22T07:20:44.972Z,1000.30
2022-08-22T07:30:51.325Z,1000.30
2022-08-22T07:40:57.535Z,1000.21
2022-08-22T07:51:03.887Z,1000.19
2022-08-22T08:01:09.821Z,1000.17
2022-08-22T08:11:15.511Z,1000.15
2022-08-22T08:21:21.352Z,1000.15
2022-08-22T08:31:27.061Z,1000.08
2022-08-22T08:41:32.939Z,1000.22
2022-08-22T08:51:38.852Z,1000.17
2022-08-22T09:01:45.901Z,1000.11
2022-08-22T09:11:52.079Z,1000.12
2022-08-22T09:21:57.891Z,1000.10
2022-08-22T09:32:03.789Z,1000.17
2022-08-22T09:42:09.695Z,1000.14
2022-08-22T09:52:32.050Z,1000.20
2022-08-22T10:02:26.023Z,1000.10
2022-08-22T10:12:36.058Z,1000.01
2022-08-22T10:22:44.608Z,1000.05
2022-08-22T10:32:50.944Z,1000.06
2022-08-22T10:42:59.171Z,1000.02
2022-08-22T10:53:05.805Z,999.98
2022-08-22T11:03:14.517Z,999.98
2022-08-22T11:13:21.267Z,999.85
2022-08-22T11:23:28.168Z,999.86
2022-08-22T11:33:46.203Z,999.88
2022-08-22T11:43:43.597Z,999.70
2022-08-22T11:53:50.384Z,999.63
2022-08-22T12:03:58.542Z,999.63
2022-08-22T12:14:06.427Z,999.51
2022-08-22T12:24:19.146Z,999.47
2022-08-22T12:34:23.606Z,999.38
2022-08-22T12:44:30.427Z,999.25
2022-08-22T12:54:37.046Z,999.17
2022-08-22T13:04:42.878Z,999.13
2022-08-22T13:14:48.483Z,999.10
2022-08-22T13:24:55.321Z,999.11
2022-08-22T13:35:00.910Z,999.09
2022-08-22T13:45:07.338Z,999.09
2022-08-22T13:55:13.683Z,999.08
2022-08-22T14:05:20.060Z,999.09
2022-08-22T14:15:32.320Z,999.09
2022-08-22T14:25:38.862Z,999.10
2022-08-22T14:35:45.574Z,999.02
2022-08-22T14:45:57.244Z,998.97
2022-08-22T14:56:08.432Z,999.06
2022-08-22T15:06:16.679Z,998.99
2022-08-22T15:16:27.467Z,999.15
2022-08-22T15:26:33.118Z,999.05
2022-08-22T15:36:39.057Z,999.09
2022-08-22T15:46:44.767Z,998.94
2022-08-22T15:56:52.353Z,998.94
2022-08-22T16:06:58.182Z,998.91
2022-08-22T16:17:03.805Z,998.83
2022-08-22T16:27:09.138Z,998.78
2022-08-22T16:37:15.146Z,998.72
2022-08-22T16:47:21.072Z,998.70
2022-08-22T16:57:26.801Z,998.79
2022-08-22T17:07:32.251Z,998.80
2022-08-22T17:17:38.102Z,998.87
2022-08-22T17:27:43.915Z,998.96
2022-08-22T17:37:49.822Z,998.95
2022-08-22T17:47:55.687Z,999.05
2022-08-22T17:58:01.698Z,999.19
2022-08-22T18:09:38.921Z,999.28
2022-08-22T18:19:43.615Z,999.38
2022-08-22T18:29:49.637Z,999.55
2022-08-22T18:39:55.512Z,999.63
2022-08-22T18:50:01.450Z,999.79
2022-08-22T19:00:07.055Z,999.82
2022-08-22T19:10:12.451Z,999.81
2022-08-22T19:20:17.716Z,999.81
2022-08-22T19:30:23.309Z,999.97
2022-08-22T19:40:28.841Z,1000.08
2022-08-22T19:50:34.228Z,1000.03
2022-08-22T20:00:39.630Z,1000.04
2022-08-22T20:10:45.019Z,1000.08
2022-08-22T20:20:50.420Z,1000.02
2022-08-22T20:30:55.929Z,1000.11
2022-08-22T20:41:01.491Z,1000.09
2022-08-22T20:51:07.645Z,1000.08
2022-08-22T21:01:12.914Z,1000.00
2022-08-22T21:11:20.809Z,1000.03
2022-08-22T21:21:26.097Z,1000.11
2022-08-22T21:31:33.529Z,1000.17
2022-08-22T21:41:38.828Z,1000.15
2022-08-22T21:51:45.627Z,1000.14
2022-08-22T22:01:51.232Z,1000.13
2022-08-22T22:11:59.227Z,1000.21
2022-08-22T22:22:05.167Z,1000.23
2022-08-22T22:32:12.012Z,1000.37
2022-08-22T22:42:17.575Z,1000.32
2022-08-22T22:52:25.183Z,1000.26
2022-08-22T23:02:31.285Z,1000.28
2022-08-22T23:12:38.924Z,1000.28
2022-08-22T23:22:44.757Z,1000.37
2022-08-22T23:32:51.820Z,1000.43
2022-08-22T23:42:57.349Z,1000.41
2022-08-22T23:53:05.007Z,1000.41
